Latest Weather Observations for Maria Island

IDT60801

Issued at 9:35 pm EST Wednesday 23 July 2014 (issued every 30 minutes, with the page automatically refreshed every 10 minutes)

About weather observations | Map of weather stations | Latest weather observations for TAS | Other Formats
Station Details ID: 092124 Name: MARIA ISLAND (POINT LESUEUR) Lat: -42.66 Lon: 148.02 Height: 28.0 m
Data from the previous 72 hours. | See also: Recent months at Maria Island
Date/Time
EST
Temp
°C
App
Temp
°C
Dew
Point
Rel
Hum
%
Delta-T
°C
Wind Press
QNH
hPa
Press
MSL
hPa
Rain
since 9 am
mm
Dir
 
Spd
km/h
Gust
km/h
Spd
kts
Gust
kts
23/09:30pm 8.6 7.6 7.2 91 0.7 NW 2 4 1 2 1021.4 - 0.0
23/09:00pm 8.8 7.8 7.3 90 0.7 WNW 2 6 1 3 1021.5 1021.6 0.0
23/08:30pm 9.2 7.8 7.3 88 0.9 N 4 6 2 3 1021.5 - 0.0
23/08:00pm 9.3 7.6 7.4 88 0.9 WNW 6 7 3 4 1021.4 1021.5 0.0
23/07:30pm 9.3 7.9 7.1 86 1.0 N 4 6 2 3 1021.5 - 0.0
23/07:00pm 9.0 6.7 5.7 80 1.5 NE 7 7 4 4 1021.3 1021.4 0.0
23/06:30pm 9.3 7.0 5.9 79 1.6 NNE 7 9 4 5 1021.2 - 0.0
23/06:00pm 8.9 6.3 6.3 84 1.2 NNE 9 11 5 6 1021.2 1021.3 0.0
23/05:30pm 10.1 8.3 7.2 82 1.4 NNE 6 7 3 4 1021.3 - 0.0
23/05:00pm 11.0 8.8 6.2 72 2.2 N 7 9 4 5 1021.1 1021.2 0.0
23/04:30pm 11.5 10.0 6.6 72 2.3 N 4 7 2 4 1020.9 - 0.0
23/04:00pm 12.6 11.8 6.6 67 2.9 CALM 0 4 0 2 1020.9 1021.0 0.0
23/03:30pm 12.8 10.8 6.4 65 3.0 W 6 11 3 6 1021.0 - 0.0
23/03:00pm 12.6 10.4 6.4 66 2.9 ESE 7 11 4 6 1020.9 1021.0 0.0
23/02:30pm 13.1 10.6 6.5 64 3.2 E 9 13 5 7 1020.9 - 0.0
23/02:00pm 12.7 10.2 6.7 67 2.9 E 9 13 5 7 1021.0 1021.1 0.0
23/01:30pm 12.3 10.4 6.8 69 2.6 SE 6 9 3 5 1021.4 - 0.0
23/01:00pm 12.7 10.9 7.0 68 2.7 S 6 7 3 4 1021.9 1022.0 0.0
23/12:30pm 12.4 10.9 6.7 68 2.7 SSW 4 6 2 3 1022.2 - 0.0
23/12:00pm 12.1 10.8 6.2 67 2.8 SW 2 4 1 2 1022.6 1022.7 0.0
23/11:30am 11.3 9.8 6.8 74 2.1 SW 4 6 2 3 1023.1 - 0.0
23/11:00am 11.3 10.1 6.6 73 2.2 WSW 2 4 1 2 1023.7 1023.8 0.0
23/10:30am 11.1 9.5 6.5 73 2.2 W 4 6 2 3 1023.8 - 0.0
23/10:00am 10.1 7.8 5.9 75 1.9 NW 7 9 4 5 1023.9 1024.0 0.0
23/09:30am 10.3 8.6 6.1 75 1.9 NW 4 6 2 3 1023.9 - 0.0
23/09:00am 10.1 7.9 6.1 76 1.8 NW 7 9 4 5 1023.9 1024.0 0.2
23/08:30am 9.5 6.9 6.2 80 1.5 NW 9 9 5 5 1023.8 - 0.2
23/08:00am 9.0 5.9 5.7 80 1.5 WNW 11 13 6 7 1023.7 1023.8 0.2
23/07:30am 8.9 5.8 5.5 79 1.5 WNW 11 13 6 7 1023.7 - 0.2
23/07:00am 9.3 7.4 6.6 83 1.3 WNW 6 9 3 5 1023.6 1023.7 0.2
23/06:30am 9.3 7.3 6.2 81 1.4 N 6 9 3 5 1023.3 - 0.2
23/06:00am 9.2 6.8 5.4 77 1.7 NNW 7 7 4 4 1023.3 1023.4 0.2
23/05:30am 9.3 7.1 5.3 76 1.8 NW 6 7 3 4 1023.2 - 0.2
23/05:00am 9.6 8.0 6.5 81 1.4 N 4 6 2 3 1023.3 1023.4 0.2
23/04:30am 9.6 7.2 6.9 83 1.3 N 9 9 5 5 1023.4 - 0.2
23/04:00am 9.4 7.0 7.2 86 1.0 N 9 11 5 6 1023.2 1023.3 0.2
23/03:30am 9.4 7.0 5.4 76 1.8 WNW 7 9 4 5 1023.2 - 0.2
23/03:00am 9.4 7.4 6.3 81 1.4 NW 6 6 3 3 1023.3 1023.4 0.2
23/02:30am 9.3 8.5 6.7 84 1.2 CALM 0 2 0 1 1023.4 - 0.2
23/02:00am 8.7 7.1 6.3 85 1.1 NNE 4 7 2 4 1023.6 1023.7 0.2
23/01:30am 9.5 7.7 7.1 85 1.1 NNW 6 7 3 4 1023.4 - 0.2
23/01:00am 9.7 9.0 6.8 82 1.4 CALM 0 0 0 0 1023.5 1023.6 0.2
23/12:30am 9.6 8.1 6.7 82 1.4 N 4 6 2 3 1023.7 - 0.2
23/12:00am 9.0 7.2 7.1 88 0.9 N 6 9 3 5 1023.8 1023.9 0.2
 
Date/Time
EST
Temp
°C
App
Temp
°C
Dew
Point
Rel
Hum
%
Delta-T
°C
Wind Press
QNH
hPa
Press
MSL
hPa
Rain
since 9 am
mm
Dir
 
Spd
km/h
Gust
km/h
Spd
kts
Gust
kts
22/11:30pm 9.4 7.5 6.7 83 1.3 NNW 6 7 3 4 1024.0 - 0.2
22/11:00pm 8.9 6.7 6.2 83 1.2 NW 7 9 4 5 1024.2 1024.3 0.2
22/10:30pm 8.7 6.9 7.0 89 0.8 N 6 7 3 4 1024.2 - 0.2
22/10:00pm 8.6 6.6 6.4 86 1.0 NNW 6 6 3 3 1024.2 1024.3 0.2
22/09:30pm 7.9 5.8 5.9 87 0.9 WNW 6 7 3 4 1024.2 - 0.2
22/09:00pm 8.9 7.0 6.5 85 1.1 NNW 6 7 3 4 1024.1 1024.2 0.2
22/08:30pm 8.6 6.6 6.2 85 1.1 NW 6 6 3 3 1024.1 - 0.2
22/08:00pm 9.0 7.1 6.6 85 1.1 NW 6 7 3 4 1024.1 1024.2 0.2
22/07:30pm 8.8 6.9 6.6 86 1.0 NW 6 7 3 4 1024.1 - 0.2
22/07:00pm 8.9 6.4 6.7 86 1.0 NW 9 11 5 6 1024.3 1024.4 0.2
22/06:30pm 9.5 7.6 6.9 84 1.2 WNW 6 7 3 4 1024.2 - 0.2
22/06:00pm 9.6 6.7 6.7 82 1.3 NW 11 13 6 7 1024.0 1024.1 0.2
22/05:30pm 10.3 9.7 7.2 81 1.5 CALM 0 4 0 2 1023.9 - 0.0
22/05:00pm 10.2 9.1 7.1 81 1.5 SE 2 4 1 2 1023.5 1023.6 0.0
22/04:30pm 10.6 9.6 7.3 80 1.6 SSE 2 4 1 2 1023.5 - 0.0
22/04:00pm 10.7 9.3 7.4 80 1.6 S 4 6 2 3 1023.5 1023.6 0.0
22/03:30pm 11.3 9.4 6.6 73 2.2 SSW 6 6 3 3 1023.5 - 0.0
22/03:00pm 11.4 9.1 5.9 69 2.6 S 7 9 4 5 1023.4 1023.5 0.0
22/02:30pm 11.7 9.8 4.9 63 3.1 S 4 4 2 2 1023.3 - 0.0
22/02:00pm 11.3 9.7 6.4 72 2.3 SSE 4 6 2 3 1023.4 1023.5 0.0
22/01:30pm 10.2 8.3 6.5 78 1.7 S 6 7 3 4 1023.6 - 0.0
22/01:00pm 10.2 7.7 6.7 79 1.6 SSW 9 11 5 6 1024.0 1024.1 0.0
22/12:30pm 10.6 8.9 5.8 72 2.2 WSW 4 6 2 3 1024.4 - 0.0
22/12:00pm 10.6 8.6 6.4 75 2.0 N 6 7 3 4 1024.8 1024.9 0.0
22/11:30am 10.7 9.0 5.9 72 2.2 NNW 4 7 2 4 1025.2 - 0.0
22/11:00am 10.3 8.2 5.9 74 2.0 N 6 7 3 4 1025.4 1025.5 0.0
22/10:30am 9.1 7.0 5.8 80 1.5 NNE 6 7 3 4 1025.6 - 0.0
22/10:00am 8.5 7.1 5.4 81 1.4 W 2 4 1 2 1025.7 1025.8 0.0
22/09:30am 7.9 5.8 3.9 76 1.7 NW 4 9 2 5 1025.9 - 0.0
22/09:00am 8.0 6.4 6.5 90 0.7 W 4 6 2 3 1026.1 1026.2 0.0
22/08:30am 7.2 5.5 6.0 92 0.5 WNW 4 6 2 3 1025.9 - 0.0
22/08:00am 6.2 3.7 5.0 92 0.5 WSW 7 9 4 5 1025.5 1025.6 0.0
22/07:30am 6.3 4.0 4.8 90 0.7 NW 6 7 3 4 1025.1 - 0.0
22/07:00am 5.7 3.1 4.3 91 0.6 WNW 7 9 4 5 1024.9 1025.0 0.0
22/06:30am 5.8 2.8 4.3 90 0.6 NW 9 11 5 6 1024.6 - 0.0
22/06:00am 5.8 2.8 4.3 90 0.6 NW 9 11 5 6 1024.7 1024.8 0.0
22/05:30am 6.3 3.4 4.8 90 0.7 WNW 9 11 5 6 1024.5 - 0.0
22/05:00am 6.6 4.1 4.9 89 0.7 WNW 7 9 4 5 1024.6 1024.7 0.0
22/04:30am 6.6 4.1 4.9 89 0.7 WNW 7 9 4 5 1024.5 - 0.0
22/04:00am 7.2 5.0 5.3 88 0.8 W 6 7 3 4 1024.6 1024.7 0.0
22/03:30am 6.5 3.5 4.3 86 0.9 WNW 9 11 5 6 1024.6 - 0.0
22/03:00am 6.6 2.9 4.3 85 1.0 WNW 13 13 7 7 1024.8 1024.9 0.0
22/02:30am 6.6 2.8 4.1 84 1.1 WNW 13 19 7 10 1025.0 - 0.0
22/02:00am 6.8 3.8 4.3 84 1.1 WNW 9 13 5 7 1025.2 1025.3 0.0
22/01:30am 7.0 3.3 4.3 83 1.2 W 13 15 7 8 1025.2 - 0.0
22/01:00am 7.1 3.4 4.4 83 1.2 WNW 13 15 7 8 1025.1 1025.2 0.0
22/12:30am 6.8 4.9 5.1 89 0.7 NW 4 11 2 6 1025.2 - 0.0
22/12:00am 7.5 5.9 6.3 92 0.5 N 4 7 2 4 1025.4 1025.5 0.0
 
Date/Time
EST
Temp
°C
App
Temp
°C
Dew
Point
Rel
Hum
%
Delta-T
°C
Wind Press
QNH
hPa
Press
MSL
hPa
Rain
since 9 am
mm
Dir
 
Spd
km/h
Gust
km/h
Spd
kts
Gust
kts
21/11:30pm 7.3 6.3 5.8 90 0.7 CALM 0 0 0 0 1025.5 - 0.0
21/11:00pm 7.6 6.5 5.1 84 1.1 CALM 0 0 0 0 1025.5 1025.6 0.0
21/10:30pm 7.8 6.1 5.8 87 0.9 NW 4 4 2 2 1025.6 - 0.0
21/10:00pm 7.7 6.0 6.0 89 0.8 NNW 4 4 2 2 1025.6 1025.7 0.0
21/09:30pm 7.2 5.5 5.7 90 0.7 N 4 4 2 2 1025.7 - 0.0
21/09:00pm 8.3 6.6 5.8 84 1.1 WNW 4 6 2 3 1025.7 1025.8 0.0
21/08:30pm 8.5 6.8 5.8 83 1.2 NW 4 6 2 3 1025.7 - 0.0
21/08:00pm 8.1 6.8 6.1 87 0.9 NNW 2 4 1 2 1025.7 1025.8 0.0
21/07:30pm 8.5 6.8 5.8 83 1.2 NNW 4 6 2 3 1025.7 - 0.0
21/07:00pm 9.1 7.5 6.4 83 1.2 WNW 4 6 2 3 1025.7 1025.8 0.0
21/06:30pm 9.0 7.0 6.4 84 1.2 WNW 6 7 3 4 1025.6 - 0.0
21/06:00pm 9.7 7.6 5.9 77 1.7 NNW 6 7 3 4 1025.5 1025.6 0.0
21/05:30pm 9.6 7.4 5.2 74 2.0 NNE 6 6 3 3 1025.2 - 0.0
21/05:00pm 9.8 7.7 5.8 76 1.8 NNE 6 7 3 4 1025.1 1025.2 0.0
21/04:30pm 10.6 8.4 6.2 74 2.1 N 7 9 4 5 1024.9 - 0.0
21/04:00pm 10.9 8.4 6.5 74 2.1 N 9 11 5 6 1024.8 1024.9 0.0
21/03:30pm 11.1 8.6 6.6 74 2.1 N 9 11 5 6 1024.8 - 0.0
21/03:00pm 11.3 8.4 6.6 73 2.2 N 11 13 6 7 1024.6 1024.7 0.0
21/02:30pm 11.4 8.1 6.5 72 2.3 N 13 15 7 8 1024.5 - 0.0
21/02:00pm 10.9 8.1 6.8 76 1.9 N 11 13 6 7 1024.7 1024.8 0.0
21/01:30pm 10.9 8.4 6.6 75 2.0 N 9 11 5 6 1024.9 - 0.0
21/01:00pm 10.7 8.3 5.3 69 2.5 N 7 9 4 5 1025.2 1025.3 0.0
21/12:30pm 10.8 8.5 5.6 70 2.4 N 7 9 4 5 1025.5 - 0.0
21/12:00pm 10.4 8.1 5.8 73 2.1 N 7 7 4 4 1025.9 1026.0 0.0
21/11:30am 10.5 8.6 6.6 77 1.8 N 6 7 3 4 1026.2 - 0.0
21/11:00am 9.9 8.1 7.2 83 1.3 N 6 7 3 4 1026.6 1026.7 0.0
21/10:30am 9.4 7.8 6.5 82 1.3 N 4 6 2 3 1026.8 - 0.0
21/10:00am 8.9 6.9 6.3 84 1.2 NNW 6 7 3 4 1026.9 1027.0 0.0
21/09:30am 8.0 5.9 5.8 86 1.0 WNW 6 7 3 4 1027.1 - 0.0
21/09:00am 8.1 6.3 7.2 94 0.4 WNW 6 7 3 4 1027.1 1027.2 0.2
21/08:30am 7.5 6.0 6.9 96 0.3 NNW 4 6 2 3 1026.9 - 0.2
21/08:00am 6.0 4.2 5.4 96 0.3 N 4 6 2 3 1026.8 1026.9 0.2
21/07:30am 6.8 5.9 6.2 96 0.3 CALM 0 2 0 1 1026.6 - 0.2
21/07:00am 6.7 5.4 6.1 96 0.3 NW 2 4 1 2 1026.4 1026.5 0.2
21/06:30am 7.1 5.9 6.5 96 0.3 NW 2 4 1 2 1026.3 - 0.2
21/06:00am 7.1 5.5 6.5 96 0.3 N 4 4 2 2 1026.1 1026.2 0.2
21/05:30am 6.1 3.9 5.5 96 0.3 NNE 6 7 3 4 1025.9 - 0.0
21/05:00am 6.8 5.5 6.2 96 0.3 NNW 2 4 1 2 1025.8 1025.9 0.0
21/04:30am 7.0 5.8 6.3 95 0.3 WNW 2 4 1 2 1025.8 - 0.0
21/04:00am 7.3 5.8 6.7 96 0.3 WNW 4 6 2 3 1025.8 1025.9 0.0
21/03:30am 6.5 4.8 5.9 96 0.3 NNE 4 7 2 4 1025.9 - 0.0
21/03:00am 6.8 5.1 6.1 95 0.3 N 4 6 2 3 1026.2 1026.3 0.0
21/02:30am 7.4 5.9 6.8 96 0.3 N 4 4 2 2 1026.4 - 0.0
21/02:00am 6.2 4.0 5.5 95 0.3 NNE 6 7 3 4 1026.3 1026.4 0.0
21/01:30am 7.0 5.8 6.3 95 0.3 N 2 4 1 2 1026.2 - 0.0
21/01:00am 6.6 4.5 5.9 95 0.3 N 6 6 3 3 1026.1 1026.2 0.0
21/12:30am 7.2 5.6 6.3 94 0.4 N 4 6 2 3 1026.2 - 0.0
21/12:00am 6.9 5.2 5.8 93 0.5 NNE 4 6 2 3 1026.5 1026.6 0.0
 
Date/Time
EST
Temp
°C
App
Temp
°C
Dew
Point
Rel
Hum
%
Delta-T
°C
Wind Press
QNH
hPa
Press
MSL
hPa
Rain
since 9 am
mm
Dir
 
Spd
km/h
Gust
km/h
Spd
kts
Gust
kts
20/11:30pm 8.0 6.8 6.3 89 0.8 WNW 2 4 1 2 1026.6 - 0.0
20/11:00pm 7.3 5.0 5.6 89 0.8 NW 7 7 4 4 1026.6 1026.7 0.0
20/10:30pm 8.2 6.1 6.0 86 1.0 NNW 6 7 3 4 1026.4 - 0.0
20/10:00pm 8.9 7.0 6.5 85 1.1 N 6 6 3 3 1026.3 1026.4 0.0

Other Formats:

Comma delimited format used in spreadsheet applications
http://www.bom.gov.au/fwo/IDT60801/IDT60801.95988.axf

JavaScript Object Notation format (JSON) in row-major order
http://www.bom.gov.au/fwo/IDT60801/IDT60801.95988.json